Cedar Point, IL

6:18 AM CDT on November 01, 2014 (GMT -0500)
Morris | Change Station
CLOSE
Current Station
Airport
Location: Morris,
Elevation: 584 ft
Nearby Weather Stations

Elev 584 ft 41.43 °N, 88.42 °W | Updated 23 minutes ago

Clear
Clear
32 °F
Feels Like 25 °F
N
7
Wind Variable Wind from NNW

Today
High -- | Low -- °F
--% Chance of Precip.
Yesterday
High -- | Low -- °F
Precip. -- in
7:27 AM 5:51 PM
Waxing Gibbous, 65% visible
Pressure 30.39 in
Visibility 10.0 miles
Clouds Scattered Clouds 3800 ft
Windchill 25 °F
Dew Point 24 °F
Humidity 74%
Rainfall 0.00 in
Snow Depth Not available.
UV 0 out of 12
Pollen .10 out of 12
Air Quality Not available.
Flu Activity Not available.
METAR KC09 011055Z AUTO 34006KT 10SM SCT038 00/M04 A3039 RMK AO2 T10031045

More Conditions Fewer Conditions

Pressure 30.39 in
Visibility 10.0 miles
Clouds Scattered Clouds 3800 ft
Windchill 25 °F
Dew Point 24 °F
Humidity 74%
Rainfall 0.00 in
Snow Depth Not available.
UV 0 out of 12
Pollen .10 out of 12
Air Quality Not available.
Flu Activity Not available.
METAR KC09 011055Z AUTO 34006KT 10SM SCT038 00/M04 A3039 RMK AO2 T10031045

More Conditions Fewer Conditions

10-Day Weather Forecast

Almanac

Astronomy

Nov. 01, 2014 Rise Set
Actual Time
Civil Twilight
Nautical Twilight
Astronomical Twilight
Moon
Length of Visible Light
Length of Day
Tomorrow will be .
, % of the Moon is Illuminated

Today's Extremes

State Highs State Lows

Community

WunderPhotos

Upload Photos

1,766,878 photos uploaded!

WunderBlogs® & News

Nearby

Air Quality

  Air Quality AQ Index Pollutant
Not available.

Snow Depth

Station Depth Elevation

Earthquake Activity

City Distance Mag. Time & Date
Minimum magnitude displayed is 2.5.

Coastal Water Temperatures

Place Temperature

Nearby Weather Stations